Time;durP1;ratioP1;P1;durP2;ratioP2;P2;SDS_P1;SDS_P2;PMS_P1;PMS_P2;Temp;Humidity;BMP_temperature;BMP_pressure;BME280_temperature;BME280_humidity;BME280_pressure;Samples;Min_cycle;Max_cycle;Signal;HPM_P1;HPM_P2
2021/12/06 00:00:00;;;;;;;38.38;26.15;;;2.40;99.90;;;;;;5022623;28;20551;-47
2021/12/06 00:02:27;;;;;;;39.80;28.00;;;2.40;99.90;;;;;;5021992;28;20085;-47
2021/12/06 00:04:53;;;;;;;41.38;27.65;;;2.40;99.90;;;;;;5023321;28;20503;-47
2021/12/06 00:07:23;;;;;;;42.97;28.77;;;2.40;99.90;;;;;;5021630;28;20041;-47
2021/12/06 00:09:49;;;;;;;39.15;27.95;;;2.30;99.90;;;;;;5022896;28;20500;-46
2021/12/06 00:12:16;;;;;;;41.40;29.05;;;2.30;99.90;;;;;;5021778;28;20136;-47
2021/12/06 00:14:42;;;;;;;45.85;29.25;;;2.30;99.90;;;;;;5017250;28;20092;-48
2021/12/06 00:17:10;;;;;;;45.55;29.25;;;2.20;99.90;;;;;;5022167;28;20088;-49
2021/12/06 00:19:44;;;;;;;44.50;29.00;;;2.30;99.90;;;;;;5021305;28;20127;-47
2021/12/06 00:22:13;;;;;;;42.47;27.25;;;2.20;99.90;;;;;;5022466;28;20220;-49
2021/12/06 00:24:39;;;;;;;37.33;26.23;;;2.30;99.90;;;;;;5025330;28;20049;-48
2021/12/06 00:27:05;;;;;;;41.33;28.08;;;2.30;99.90;;;;;;5023119;28;20080;-48
2021/12/06 00:29:31;;;;;;;38.63;28.00;;;2.30;99.90;;;;;;5017006;28;20049;-50
2021/12/06 00:31:57;;;;;;;40.50;28.08;;;2.20;99.90;;;;;;5012595;28;20052;-46
2021/12/06 00:34:25;;;;;;;40.78;26.27;;;2.30;99.90;;;;;;5019721;28;20049;-47
2021/12/06 00:37:05;;;;;;;39.67;26.92;;;2.30;99.90;;;;;;4994388;28;20087;-46
2021/12/06 00:39:32;;;;;;;39.85;27.83;;;2.20;99.90;;;;;;5003565;28;20053;-47
2021/12/06 00:41:59;;;;;;;33.88;24.75;;;2.30;99.90;;;;;;5022277;28;20084;-46
2021/12/06 00:44:24;;;;;;;39.55;26.30;;;2.30;99.90;;;;;;5021743;28;20492;-48
2021/12/06 00:46:51;;;;;;;36.35;26.35;;;2.30;99.90;;;;;;5021292;28;20049;-48
2021/12/06 00:49:16;;;;;;;40.45;27.67;;;2.30;99.90;;;;;;5020496;28;20447;-47
2021/12/06 00:51:42;;;;;;;38.42;25.73;;;2.30;99.90;;;;;;5022111;28;20160;-46
2021/12/06 00:54:09;;;;;;;42.60;27.38;;;2.30;99.90;;;;;;5022032;28;20395;-48
2021/12/06 00:56:37;;;;;;;38.58;25.33;;;2.30;99.90;;;;;;5003965;28;20061;-46
2021/12/06 00:59:03;;;;;;;38.83;26.27;;;2.30;99.90;;;;;;5008972;28;20391;-47
2021/12/06 01:01:30;;;;;;;38.63;25.67;;;2.30;99.90;;;;;;5003087;28;20507;-48
2021/12/06 01:03:56;;;;;;;42.70;27.80;;;2.20;99.90;;;;;;5002439;28;20176;-47
2021/12/06 01:06:21;;;;;;;42.25;27.83;;;2.20;99.90;;;;;;5001799;28;20480;-48
2021/12/06 01:08:47;;;;;;;42.15;27.77;;;2.20;99.90;;;;;;4983997;28;20421;-47
2021/12/06 01:11:13;;;;;;;46.38;30.98;;;2.20;99.90;;;;;;5014704;28;20084;-47
2021/12/06 01:13:40;;;;;;;40.53;27.17;;;2.20;99.90;;;;;;5003779;28;20570;-47
2021/12/06 01:16:09;;;;;;;46.05;28.50;;;2.20;99.90;;;;;;5021358;28;20107;-47
2021/12/06 01:18:36;;;;;;;45.60;29.08;;;2.20;99.90;;;;;;5020513;28;20045;-47
2021/12/06 01:21:13;;;;;;;39.88;27.15;;;2.20;99.90;;;;;;5020860;28;20415;-47
2021/12/06 01:26:43;;;;;;;41.72;28.38;;;2.20;99.90;;;;;;5006658;28;20053;-47
2021/12/06 01:34:10;;;;;;;40.78;25.52;;;2.20;99.90;;;;;;5020115;28;20085;-48
2021/12/06 01:39:25;;;;;;;44.08;26.83;;;2.20;99.90;;;;;;4988697;28;20482;-50
2021/12/06 01:41:55;;;;;;;44.10;28.05;;;2.20;99.90;;;;;;5004987;28;20050;-47
2021/12/06 01:44:28;;;;;;;43.53;28.33;;;2.20;99.90;;;;;;5014196;28;20056;-46
2021/12/06 01:47:01;;;;;;;43.28;26.92;;;2.10;99.90;;;;;;5011991;28;20153;-47
2021/12/06 01:49:28;;;;;;;;;;;2.20;99.90;;;;;;5005799;28;20104;-50
2021/12/06 01:51:57;;;;;;;40.80;27.70;;;2.10;99.90;;;;;;5006482;28;20355;-46
2021/12/06 01:54:23;;;;;;;45.08;28.48;;;2.10;99.90;;;;;;5025249;28;20617;-49
2021/12/06 01:56:50;;;;;;;46.30;29.35;;;2.10;99.90;;;;;;5023630;28;20045;-47
2021/12/06 01:59:18;;;;;;;40.90;26.83;;;2.10;99.90;;;;;;4987613;28;20726;-47
2021/12/06 02:01:44;;;;;;;43.38;27.55;;;2.10;99.90;;;;;;5018514;28;20346;-47
2021/12/06 02:04:11;;;;;;;45.58;29.45;;;2.10;99.90;;;;;;5025598;28;20133;-46
2021/12/06 02:06:38;;;;;;;46.30;29.25;;;2.20;99.90;;;;;;5023892;28;20049;-47
2021/12/06 02:09:08;;;;;;;43.67;27.90;;;2.20;99.90;;;;;;5024938;28;20096;-47
2021/12/06 02:11:37;;;;;;;44.55;29.67;;;2.20;99.90;;;;;;5024591;28;20642;-47
2021/12/06 02:14:19;;;;;;;43.03;27.95;;;2.20;99.90;;;;;;5007155;28;20057;-47
2021/12/06 02:17:01;;;;;;;46.35;28.90;;;2.20;99.90;;;;;;5023485;28;20512;-47
2021/12/06 02:19:32;;;;;;;41.35;24.40;;;2.20;99.90;;;;;;5022849;28;20099;-47
2021/12/06 02:22:00;;;;;;;42.83;27.58;;;2.20;99.90;;;;;;5024199;28;20045;-49
2021/12/06 02:24:27;;;;;;;41.83;26.60;;;2.10;99.90;;;;;;5024116;28;20436;-46
2021/12/06 02:26:53;;;;;;;45.33;27.23;;;2.10;99.90;;;;;;5023603;28;20417;-50
2021/12/06 02:29:20;;;;;;;44.50;28.75;;;2.10;99.90;;;;;;5011319;28;20390;-46
2021/12/06 02:31:46;;;;;;;42.53;27.60;;;2.10;99.90;;;;;;5016840;28;20042;-47
2021/12/06 02:34:13;;;;;;;40.08;26.83;;;2.10;99.90;;;;;;5012214;28;20081;-47
2021/12/06 02:36:40;;;;;;;43.45;28.27;;;2.10;99.90;;;;;;5024005;28;20037;-47
2021/12/06 02:39:13;;;;;;;48.70;28.17;;;2.10;99.90;;;;;;5006303;28;20045;-47
2021/12/06 02:41:39;;;;;;;;;;;2.10;99.90;;;;;;5008966;28;20053;-50
2021/12/06 02:44:05;;;;;;;46.92;28.50;;;2.10;99.90;;;;;;5024241;28;20303;-54
2021/12/06 02:46:34;;;;;;;47.30;28.48;;;2.10;99.90;;;;;;5023980;28;20049;-50
2021/12/06 02:49:00;;;;;;;45.42;27.08;;;2.10;99.90;;;;;;5022370;28;20142;-48
2021/12/06 02:51:27;;;;;;;50.58;30.98;;;2.20;99.90;;;;;;5024674;28;20166;-46
2021/12/06 02:53:53;;;;;;;46.42;29.30;;;2.10;99.90;;;;;;5023471;28;20060;-47
2021/12/06 02:56:31;;;;;;;47.63;28.15;;;2.20;99.90;;;;;;5023027;28;20053;-49
2021/12/06 02:59:06;;;;;;;46.90;29.67;;;2.20;99.90;;;;;;5022730;28;20046;-47
2021/12/06 03:01:40;;;;;;;48.05;29.00;;;2.20;99.90;;;;;;5021772;28;20045;-47
2021/12/06 03:04:08;;;;;;;48.50;30.63;;;2.20;99.90;;;;;;5024134;28;20044;-47
2021/12/06 03:06:34;;;;;;;48.13;28.98;;;2.20;99.90;;;;;;5021975;28;20085;-47
2021/12/06 03:09:07;;;;;;;49.72;30.45;;;2.20;99.90;;;;;;5022690;28;20119;-48
2021/12/06 03:11:39;;;;;;;50.00;29.20;;;2.20;99.90;;;;;;5002949;28;20045;-48
2021/12/06 03:14:11;;;;;;;32.75;20.17;;;2.20;99.90;;;;;;5004098;28;20053;-48
2021/12/06 03:16:38;;;;;;;49.00;28.75;;;2.30;99.90;;;;;;5003571;28;20083;-47
2021/12/06 03:19:05;;;;;;;47.83;28.38;;;2.20;99.90;;;;;;5022110;28;20512;-47
2021/12/06 03:21:32;;;;;;;51.17;28.63;;;2.20;99.90;;;;;;5003054;28;20053;-47
2021/12/06 03:23:59;;;;;;;48.10;28.63;;;2.30;99.90;;;;;;5022306;28;20555;-47
2021/12/06 03:26:27;;;;;;;46.85;27.55;;;2.20;99.90;;;;;;5020661;28;20049;-47
2021/12/06 03:28:53;;;;;;;47.20;28.02;;;2.30;99.90;;;;;;5008077;28;20054;-47
2021/12/06 03:31:21;;;;;;;50.67;28.77;;;2.20;99.90;;;;;;5017071;28;20057;-48
2021/12/06 03:33:49;;;;;;;45.17;28.08;;;2.30;99.90;;;;;;5015416;28;20072;-47
2021/12/06 03:36:17;;;;;;;49.67;29.35;;;2.30;99.90;;;;;;5018339;28;20427;-47
2021/12/06 03:38:44;;;;;;;53.35;28.67;;;2.30;99.90;;;;;;5005709;28;20088;-47
2021/12/06 03:41:13;;;;;;;51.45;29.90;;;2.20;99.90;;;;;;5004814;28;20238;-47
2021/12/06 03:43:40;;;;;;;50.13;28.33;;;2.20;99.90;;;;;;5022240;28;20049;-49
2021/12/06 03:46:07;;;;;;;51.55;29.55;;;2.20;99.90;;;;;;5005757;28;20054;-48
2021/12/06 03:48:33;;;;;;;51.63;29.65;;;2.20;99.90;;;;;;5025807;28;20053;-47
2021/12/06 03:51:00;;;;;;;56.00;30.70;;;2.20;99.90;;;;;;5004458;28;20057;-49
2021/12/06 03:53:27;;;;;;;50.03;29.45;;;2.30;99.90;;;;;;5021892;28;20094;-49
2021/12/06 03:55:57;;;;;;;51.63;30.20;;;2.30;99.90;;;;;;5010071;28;20128;-47
2021/12/06 03:58:23;;;;;;;54.25;28.88;;;2.30;99.90;;;;;;5019790;28;20504;-47
2021/12/06 04:00:49;;;;;;;54.72;29.67;;;2.20;99.90;;;;;;5022099;28;20049;-47
2021/12/06 04:03:16;;;;;;;51.60;29.83;;;2.30;99.90;;;;;;5020479;28;20053;-47
2021/12/06 04:05:42;;;;;;;50.38;28.70;;;2.30;99.90;;;;;;5021046;28;20053;-46
2021/12/06 04:08:08;;;;;;;56.70;30.10;;;2.30;99.90;;;;;;5002317;28;20049;-49
2021/12/06 04:10:34;;;;;;;50.03;28.90;;;2.30;99.90;;;;;;5022796;28;20045;-47
2021/12/06 04:13:01;;;;;;;53.15;31.05;;;2.30;99.90;;;;;;5022136;28;20080;-47
2021/12/06 04:15:31;;;;;;;51.92;30.35;;;2.30;99.90;;;;;;5022942;28;20056;-47
2021/12/06 04:18:00;;;;;;;56.42;32.13;;;2.30;99.90;;;;;;5021957;28;20116;-47
2021/12/06 04:20:27;;;;;;;58.53;32.92;;;2.30;99.90;;;;;;5022569;28;20476;-47
2021/12/06 04:22:53;;;;;;;54.00;31.50;;;2.30;99.90;;;;;;5022077;28;20056;-47
2021/12/06 04:25:20;;;;;;;53.15;30.88;;;2.30;99.90;;;;;;5021691;28;20515;-47
2021/12/06 04:27:52;;;;;;;53.13;31.75;;;2.30;99.90;;;;;;5009481;28;20049;-47
2021/12/06 04:30:19;;;;;;;50.53;30.33;;;2.30;99.90;;;;;;5007043;28;20476;-48
2021/12/06 04:32:45;;;;;;;55.67;31.55;;;2.30;99.90;;;;;;5011689;28;20049;-47
2021/12/06 04:35:11;;;;;;;56.03;32.17;;;2.30;99.90;;;;;;4997292;28;20053;-47
2021/12/06 04:37:37;;;;;;;64.10;35.25;;;2.30;99.90;;;;;;4989936;28;20393;-48
2021/12/06 04:40:07;;;;;;;54.22;32.10;;;2.30;99.90;;;;;;4994451;28;20063;-46
2021/12/06 04:42:32;;;;;;;52.42;30.92;;;2.30;99.90;;;;;;5013653;28;20049;-47
2021/12/06 04:44:58;;;;;;;54.70;31.30;;;2.30;99.90;;;;;;5012472;28;20046;-50
2021/12/06 04:47:24;;;;;;;56.97;30.85;;;2.30;99.90;;;;;;4993350;28;20057;-49
2021/12/06 04:49:50;;;;;;;53.03;31.10;;;2.30;99.90;;;;;;5014914;28;20061;-49
2021/12/06 04:52:17;;;;;;;53.47;30.90;;;2.30;99.90;;;;;;5011810;28;20739;-46
2021/12/06 04:54:47;;;;;;;52.15;30.38;;;2.30;99.90;;;;;;5005179;28;20196;-49
2021/12/06 04:57:21;;;;;;;55.45;30.88;;;2.30;99.90;;;;;;5010386;28;20041;-48
2021/12/06 04:59:57;;;;;;;49.75;30.00;;;2.30;99.90;;;;;;5001811;28;20061;-49
2021/12/06 05:02:34;;;;;;;49.42;29.70;;;2.30;99.90;;;;;;4998177;28;20057;-51
2021/12/06 05:05:06;;;;;;;52.03;29.33;;;2.30;99.90;;;;;;4998692;28;20057;-49
2021/12/06 05:07:47;;;;;;;54.80;30.57;;;2.30;99.90;;;;;;5013043;28;20053;-50
2021/12/06 05:10:13;;;;;;;53.38;29.33;;;2.30;99.90;;;;;;5008113;28;20102;-46
2021/12/06 05:12:44;;;;;;;54.78;30.42;;;2.30;99.90;;;;;;5026836;28;20053;-46
2021/12/06 05:15:10;;;;;;;49.83;29.73;;;2.30;99.90;;;;;;5008103;28;20501;-48
2021/12/06 05:17:37;;;;;;;55.13;31.27;;;2.30;99.90;;;;;;5025315;28;20119;-47
2021/12/06 05:20:05;;;;;;;55.00;30.77;;;2.30;99.90;;;;;;5022472;28;20132;-46
2021/12/06 05:22:32;;;;;;;51.92;29.90;;;2.30;99.90;;;;;;5025225;28;20574;-47
2021/12/06 05:24:58;;;;;;;55.90;30.90;;;2.30;99.90;;;;;;5022261;28;20506;-48
2021/12/06 05:27:28;;;;;;;54.28;30.92;;;2.30;99.90;;;;;;5006314;28;20551;-47
2021/12/06 05:29:58;;;;;;;54.95;30.55;;;2.30;99.90;;;;;;5018056;28;20089;-47
2021/12/06 05:32:30;;;;;;;53.58;32.83;;;2.30;99.90;;;;;;4997957;28;20143;-47
2021/12/06 05:35:07;;;;;;;58.08;33.25;;;2.30;99.90;;;;;;5020690;28;20061;-47
2021/12/06 05:37:39;;;;;;;59.30;32.20;;;2.30;99.90;;;;;;5020263;28;20083;-46
2021/12/06 05:40:10;;;;;;;59.28;32.45;;;2.30;99.90;;;;;;5006048;28;20111;-49
2021/12/06 05:42:39;;;;;;;59.35;32.03;;;2.30;99.90;;;;;;5013235;28;20041;-46
2021/12/06 05:45:06;;;;;;;57.17;29.85;;;2.30;99.90;;;;;;5008560;28;20200;-49
2021/12/06 05:47:32;;;;;;;62.83;33.40;;;2.30;99.90;;;;;;5004232;28;20545;-47
2021/12/06 05:49:58;;;;;;;58.70;32.10;;;2.30;99.90;;;;;;5014371;28;20409;-49
2021/12/06 05:52:33;;;;;;;62.20;32.05;;;2.30;99.90;;;;;;5011001;28;20176;-47
2021/12/06 05:54:59;;;;;;;56.78;31.90;;;2.30;99.90;;;;;;5015166;28;20358;-48
2021/12/06 05:57:24;;;;;;;60.17;30.75;;;2.30;99.90;;;;;;5011578;28;20048;-50
2021/12/06 05:59:50;;;;;;;53.47;30.48;;;2.40;99.90;;;;;;5024986;28;20132;-49
2021/12/06 06:02:17;;;;;;;54.85;30.92;;;2.40;99.90;;;;;;5012291;28;21061;-46
2021/12/06 06:04:48;;;;;;;53.88;31.17;;;2.40;99.90;;;;;;5012146;28;20050;-48
2021/12/06 06:07:14;;;;;;;50.55;28.67;;;2.40;99.90;;;;;;5008385;28;20124;-52
2021/12/06 06:09:40;;;;;;;50.95;29.02;;;2.40;99.90;;;;;;5013712;28;20492;-50
2021/12/06 06:12:07;;;;;;;54.72;30.60;;;2.40;99.90;;;;;;5017840;28;20049;-47
2021/12/06 06:14:32;;;;;;;50.42;29.52;;;2.40;99.90;;;;;;5014236;28;20049;-47
2021/12/06 06:17:08;;;;;;;56.58;30.85;;;2.40;99.90;;;;;;5012667;28;20087;-47
2021/12/06 06:19:36;;;;;;;55.88;29.45;;;2.40;99.90;;;;;;5013743;28;20042;-48
2021/12/06 06:22:02;;;;;;;52.85;30.20;;;2.40;99.90;;;;;;5017886;28;20050;-47
2021/12/06 06:24:28;;;;;;;53.22;28.90;;;2.40;99.90;;;;;;5019174;28;20491;-47
2021/12/06 06:26:54;;;;;;;53.97;29.33;;;2.40;99.90;;;;;;5019440;28;20056;-47
2021/12/06 06:29:20;;;;;;;50.55;29.35;;;2.40;99.90;;;;;;5017104;28;20500;-47
2021/12/06 06:31:45;;;;;;;54.13;29.55;;;2.40;99.90;;;;;;5016387;28;20061;-49
2021/12/06 06:34:12;;;;;;;58.72;31.38;;;2.40;99.90;;;;;;5023789;28;20662;-47
2021/12/06 06:36:38;;;;;;;53.67;28.73;;;2.40;99.90;;;;;;5025078;28;20045;-49
2021/12/06 06:39:06;;;;;;;63.33;32.00;;;2.40;99.90;;;;;;5024663;28;20377;-47
2021/12/06 06:41:32;;;;;;;53.80;29.88;;;2.40;99.90;;;;;;4996654;28;20454;-49
2021/12/06 06:44:01;;;;;;;58.92;32.60;;;2.40;99.90;;;;;;5001799;28;20057;-46
2021/12/06 06:46:28;;;;;;;59.92;32.03;;;2.40;99.90;;;;;;5006568;28;20495;-46
2021/12/06 06:48:56;;;;;;;56.00;29.13;;;2.40;99.90;;;;;;5008963;28;20068;-47
2021/12/06 06:51:23;;;;;;;56.75;29.85;;;2.40;99.90;;;;;;5005919;28;20131;-48
2021/12/06 06:53:49;;;;;;;56.60;30.10;;;2.40;99.90;;;;;;5010855;28;20497;-47
2021/12/06 06:56:14;;;;;;;55.15;30.20;;;2.40;99.90;;;;;;5007613;28;20546;-49
2021/12/06 06:58:40;;;;;;;57.40;28.88;;;2.40;99.90;;;;;;5010209;28;20168;-49
2021/12/06 07:01:06;;;;;;;60.22;31.25;;;2.50;99.90;;;;;;5006798;28;20138;-47
2021/12/06 07:03:32;;;;;;;63.90;32.20;;;2.50;99.90;;;;;;5016817;28;20053;-47
2021/12/06 07:06:00;;;;;;;65.43;31.75;;;2.50;99.90;;;;;;5007521;28;20045;-48
2021/12/06 07:08:27;;;;;;;58.78;29.25;;;2.50;99.90;;;;;;5019384;28;20079;-47
2021/12/06 07:10:54;;;;;;;59.22;30.88;;;2.40;99.90;;;;;;5008315;28;20054;-47
2021/12/06 07:13:21;;;;;;;63.50;31.08;;;2.40;99.90;;;;;;5010765;28;20485;-49
2021/12/06 07:15:47;;;;;;;61.90;31.98;;;2.40;99.90;;;;;;5023286;28;20107;-49
2021/12/06 07:18:13;;;;;;;64.22;29.73;;;2.40;99.90;;;;;;5021979;28;20049;-48
2021/12/06 07:20:39;;;;;;;64.63;32.50;;;2.40;99.90;;;;;;5005560;28;20050;-47
2021/12/06 07:23:05;;;;;;;63.22;31.30;;;2.50;99.90;;;;;;5009472;28;20060;-47
2021/12/06 07:25:31;;;;;;;65.93;31.15;;;2.40;99.90;;;;;;5015781;28;20663;-47
2021/12/06 07:27:58;;;;;;;64.28;33.17;;;2.50;99.90;;;;;;5016146;28;20076;-47
2021/12/06 07:30:24;;;;;;;68.50;32.40;;;2.50;99.90;;;;;;5023149;28;20080;-46
2021/12/06 07:32:52;;;;;;;62.42;30.88;;;2.50;99.90;;;;;;5022190;28;20041;-47
2021/12/06 07:35:18;;;;;;;66.18;32.03;;;2.50;99.90;;;;;;5022393;28;20479;-47
2021/12/06 07:37:44;;;;;;;67.22;32.95;;;2.50;99.90;;;;;;5011751;28;20057;-46
2021/12/06 07:40:13;;;;;;;68.43;33.10;;;2.50;99.90;;;;;;5013299;28;20045;-47
2021/12/06 07:42:39;;;;;;;76.00;33.63;;;2.50;99.90;;;;;;4989135;28;20549;-47
2021/12/06 07:45:07;;;;;;;75.95;32.15;;;2.50;99.90;;;;;;5022258;28;20061;-50
2021/12/06 07:47:37;;;;;;;74.85;33.30;;;2.50;99.90;;;;;;5021613;28;20052;-47
2021/12/06 07:50:11;;;;;;;72.93;33.50;;;2.50;99.90;;;;;;5011115;28;20607;-48
2021/12/06 07:52:37;;;;;;;90.78;36.08;;;2.50;99.90;;;;;;5018615;28;20539;-48
2021/12/06 07:55:06;;;;;;;77.82;35.40;;;2.50;99.90;;;;;;5007053;28;20041;-47
2021/12/06 07:57:32;;;;;;;77.97;34.67;;;2.50;99.90;;;;;;5016627;28;20056;-50
2021/12/06 07:59:58;;;;;;;80.43;34.70;;;2.50;99.90;;;;;;5010247;28;20042;-48
2021/12/06 08:02:24;;;;;;;72.43;33.13;;;2.60;99.90;;;;;;5010775;28;20447;-47
2021/12/06 08:04:59;;;;;;;82.55;34.63;;;2.60;99.90;;;;;;5022245;28;20510;-47
2021/12/06 08:07:25;;;;;;;91.90;34.95;;;2.60;99.90;;;;;;5013944;28;20045;-46
2021/12/06 08:09:53;;;;;;;87.63;35.92;;;2.60;99.90;;;;;;5016980;28;20049;-46
2021/12/06 08:12:19;;;;;;;87.53;36.42;;;2.60;99.90;;;;;;5013518;28;20045;-47
2021/12/06 08:14:45;;;;;;;88.15;35.65;;;2.60;99.90;;;;;;5013575;28;20390;-50
2021/12/06 08:17:16;;;;;;;103.63;38.97;;;2.70;99.90;;;;;;5020242;28;20064;-48
2021/12/06 08:19:41;;;;;;;101.50;37.25;;;2.70;99.90;;;;;;5019977;28;20049;-48
2021/12/06 08:22:14;;;;;;;109.50;39.15;;;2.70;99.90;;;;;;5011575;28;20377;-53
2021/12/06 08:24:40;;;;;;;97.57;37.20;;;2.70;99.90;;;;;;5015455;28;20068;-47
2021/12/06 08:27:05;;;;;;;103.90;40.75;;;2.80;99.90;;;;;;5015111;28;20072;-49
2021/12/06 08:29:31;;;;;;;106.25;39.75;;;2.80;99.90;;;;;;5021553;28;20041;-48
2021/12/06 08:31:57;;;;;;;106.47;40.38;;;2.80;99.90;;;;;;5021693;28;20053;-46
2021/12/06 08:34:22;;;;;;;114.05;39.08;;;2.80;99.90;;;;;;5017154;28;20445;-47
2021/12/06 08:36:48;;;;;;;115.25;42.05;;;2.80;99.90;;;;;;5016395;28;20072;-47
2021/12/06 08:39:14;;;;;;;114.55;41.30;;;2.80;99.90;;;;;;5015715;28;20050;-50
2021/12/06 08:41:40;;;;;;;120.10;42.38;;;2.90;99.90;;;;;;4995818;28;20045;-47
2021/12/06 08:44:05;;;;;;;110.30;40.85;;;2.90;99.90;;;;;;5016381;28;20052;-49
2021/12/06 08:46:35;;;;;;;118.55;41.80;;;2.90;99.90;;;;;;5013948;28;20084;-48
2021/12/06 08:49:05;;;;;;;115.20;41.55;;;2.90;99.90;;;;;;5018372;28;20061;-48
2021/12/06 08:51:40;;;;;;;106.13;39.67;;;3.00;99.90;;;;;;5014218;28;20144;-48
2021/12/06 08:54:08;;;;;;;113.38;41.47;;;3.00;99.90;;;;;;5012590;28;20650;-47
2021/12/06 08:56:35;;;;;;;102.43;39.30;;;3.00;99.90;;;;;;5005225;28;20050;-46
2021/12/06 08:59:01;;;;;;;92.90;38.58;;;3.00;99.90;;;;;;5007725;28;20188;-48
2021/12/06 09:01:28;;;;;;;95.45;37.45;;;3.00;99.90;;;;;;5020742;28;20559;-46
2021/12/06 09:03:54;;;;;;;90.20;37.75;;;3.10;99.90;;;;;;5011729;28;20042;-47
2021/12/06 09:06:20;;;;;;;88.15;37.80;;;3.10;99.90;;;;;;5011285;28;20086;-48
2021/12/06 09:08:47;;;;;;;82.78;36.20;;;3.10;99.90;;;;;;5011778;28;20602;-50
2021/12/06 09:11:12;;;;;;;79.72;35.53;;;3.10;99.90;;;;;;5003212;28;20053;-47
2021/12/06 09:13:40;;;;;;;82.78;36.75;;;3.10;99.90;;;;;;5017909;28;20579;-49
2021/12/06 09:16:07;;;;;;;84.65;37.70;;;3.10;99.90;;;;;;4988614;28;20509;-48
2021/12/06 09:18:37;;;;;;;79.55;33.70;;;3.10;99.90;;;;;;5023269;28;20061;-47
2021/12/06 09:21:05;;;;;;;83.40;35.38;;;3.10;99.90;;;;;;5017998;28;20088;-48
2021/12/06 09:23:37;;;;;;;82.05;36.10;;;3.10;99.90;;;;;;4999872;28;20131;-48
2021/12/06 09:26:04;;;;;;;82.20;36.85;;;3.00;99.90;;;;;;5024572;28;20085;-47
2021/12/06 09:28:31;;;;;;;76.90;35.33;;;3.10;99.90;;;;;;5026931;28;20045;-48
2021/12/06 09:30:58;;;;;;;83.68;35.80;;;3.10;99.90;;;;;;5024463;28;20056;-50
2021/12/06 09:33:24;;;;;;;80.57;35.63;;;3.10;99.90;;;;;;5006673;28;20057;-50
2021/12/06 09:35:54;;;;;;;72.38;33.03;;;3.10;99.90;;;;;;5022619;28;20416;-48
2021/12/06 09:38:27;;;;;;;75.47;35.50;;;3.10;99.90;;;;;;4991377;28;20504;-48
2021/12/06 09:40:55;;;;;;;77.50;37.08;;;3.20;99.90;;;;;;4998647;28;20183;-48
2021/12/06 09:43:22;;;;;;;73.82;36.22;;;3.20;99.90;;;;;;5016530;28;20405;-49
2021/12/06 09:45:48;;;;;;;76.45;35.40;;;3.20;99.90;;;;;;5017906;28;20049;-48
2021/12/06 09:48:16;;;;;;;72.55;34.63;;;3.20;99.90;;;;;;5006641;28;20065;-47
2021/12/06 09:50:57;;;;;;;73.50;35.10;;;3.20;99.90;;;;;;5005656;28;20901;-49
2021/12/06 09:53:29;;;;;;;71.00;36.10;;;3.00;99.90;;;;;;5015019;28;20046;-47
2021/12/06 09:55:59;;;;;;;74.07;35.58;;;2.90;99.90;;;;;;4999977;28;20089;-46
2021/12/06 09:58:25;;;;;;;77.63;36.58;;;2.90;99.90;;;;;;5015778;28;20046;-48
2021/12/06 10:01:00;;;;;;;81.40;37.85;;;2.90;99.90;;;;;;5016685;28;20503;-48
2021/12/06 10:03:29;;;;;;;85.82;36.80;;;3.00;99.90;;;;;;5017209;28;20073;-48
2021/12/06 10:06:01;;;;;;;80.93;37.78;;;3.00;99.90;;;;;;5017103;28;20386;-47
2021/12/06 10:08:36;;;;;;;87.68;37.75;;;3.00;99.90;;;;;;5020224;28;20045;-49
2021/12/06 10:11:03;;;;;;;85.15;39.63;;;3.00;99.90;;;;;;5014413;28;20033;-48
2021/12/06 10:13:39;;;;;;;88.28;38.65;;;3.00;99.90;;;;;;5017560;28;20136;-48
2021/12/06 10:16:08;;;;;;;81.60;38.33;;;3.10;99.90;;;;;;5025988;28;20103;-47
2021/12/06 10:18:34;;;;;;;76.85;36.97;;;3.10;99.90;;;;;;5023934;28;20152;-48
2021/12/06 10:21:01;;;;;;;72.30;37.20;;;3.10;99.90;;;;;;5018569;28;20061;-47
2021/12/06 10:23:28;;;;;;;69.72;34.65;;;3.00;99.90;;;;;;5021249;28;20467;-47
2021/12/06 10:25:57;;;;;;;72.97;36.53;;;3.00;99.90;;;;;;5024302;28;20068;-48
2021/12/06 10:28:28;;;;;;;72.53;35.78;;;3.00;99.90;;;;;;5024735;28;20099;-52
2021/12/06 10:31:05;;;;;;;60.95;32.42;;;3.00;99.90;;;;;;5024269;28;20056;-48
2021/12/06 10:33:40;;;;;;;65.97;33.22;;;2.90;99.90;;;;;;5019336;28;20489;-48
2021/12/06 10:36:11;;;;;;;63.80;33.05;;;2.80;99.90;;;;;;5027251;28;20049;-48
2021/12/06 10:38:40;;;;;;;58.90;30.50;;;2.70;99.90;;;;;;5026181;28;20140;-48
2021/12/06 10:41:15;;;;;;;63.30;31.17;;;2.70;99.90;;;;;;5013484;28;20076;-49
2021/12/06 10:43:50;;;;;;;69.97;33.65;;;2.60;99.90;;;;;;4996060;28;20041;-49
2021/12/06 10:46:17;;;;;;;72.10;31.27;;;2.60;99.90;;;;;;5020430;28;20087;-47
2021/12/06 10:48:43;;;;;;;66.75;31.17;;;2.60;99.90;;;;;;5009652;28;20053;-48
2021/12/06 10:51:18;;;;;;;69.25;32.50;;;2.60;99.90;;;;;;5010908;28;20057;-48
2021/12/06 10:54:06;;;;;;;62.22;30.40;;;2.50;99.90;;;;;;5019627;28;20045;-48
2021/12/06 10:56:47;;;;;;;60.40;30.80;;;2.50;99.90;;;;;;5016615;28;20124;-50
2021/12/06 10:59:20;;;;;;;70.35;31.17;;;2.60;99.90;;;;;;4996039;28;20049;-47
2021/12/06 11:01:53;;;;;;;63.72;30.67;;;2.50;99.90;;;;;;5020416;28;20104;-48
2021/12/06 11:04:23;;;;;;;64.40;31.33;;;2.60;99.90;;;;;;5004700;28;20531;-47
2021/12/06 11:06:51;;;;;;;71.13;33.20;;;2.50;99.90;;;;;;5007777;28;20061;-47
2021/12/06 11:09:23;;;;;;;69.57;32.38;;;2.40;99.90;;;;;;5020128;28;20256;-47
2021/12/06 11:11:54;;;;;;;72.95;32.05;;;2.40;99.90;;;;;;5013840;28;20046;-48
2021/12/06 11:14:30;;;;;;;79.82;32.25;;;2.40;99.90;;;;;;5006109;28;20140;-47
2021/12/06 11:17:00;;;;;;;77.35;33.22;;;2.40;99.90;;;;;;5006490;28;20050;-47
2021/12/06 11:19:29;;;;;;;81.57;33.83;;;2.40;99.90;;;;;;5015898;28;20046;-48
2021/12/06 11:22:04;;;;;;;75.50;33.63;;;2.40;99.90;;;;;;5004343;28;20046;-48
2021/12/06 11:24:31;;;;;;;79.53;34.55;;;2.40;99.90;;;;;;5013923;28;20500;-47
2021/12/06 11:27:05;;;;;;;86.07;36.28;;;2.40;99.90;;;;;;5023206;28;20433;-47
2021/12/06 11:29:52;;;;;;;96.25;41.47;;;2.40;99.90;;;;;;5015638;28;20045;-48
2021/12/06 11:32:32;;;;;;;87.45;35.53;;;2.50;99.90;;;;;;5017513;28;20064;-49
2021/12/06 11:35:12;;;;;;;84.47;34.17;;;2.60;99.90;;;;;;4998566;28;20224;-47
2021/12/06 11:37:49;;;;;;;89.70;37.00;;;2.60;99.90;;;;;;5016484;28;20046;-50
2021/12/06 11:40:28;;;;;;;76.93;34.33;;;2.60;99.90;;;;;;5013115;28;20045;-48
2021/12/06 11:43:00;;;;;;;76.38;33.80;;;2.60;99.90;;;;;;5016771;28;20085;-47
2021/12/06 11:45:35;;;;;;;73.10;32.88;;;2.70;99.90;;;;;;5000381;28;20052;-50
2021/12/06 11:48:05;;;;;;;81.35;34.33;;;2.70;99.90;;;;;;5008681;28;20504;-50
2021/12/06 11:50:37;;;;;;;75.68;34.47;;;2.70;99.90;;;;;;5022636;28;20045;-51
2021/12/06 11:53:05;;;;;;;99.55;41.00;;;2.70;99.90;;;;;;5024054;28;20530;-48
2021/12/06 11:55:31;;;;;;;93.30;40.65;;;2.70;99.90;;;;;;5014497;28;20049;-48
2021/12/06 11:57:59;;;;;;;91.32;39.13;;;2.70;99.90;;;;;;5023941;28;20061;-48
2021/12/06 12:00:26;;;;;;;101.35;41.50;;;2.70;99.90;;;;;;5021402;28;20134;-48
2021/12/06 12:02:57;;;;;;;101.97;42.08;;;2.70;99.90;;;;;;5023442;28;20404;-47
2021/12/06 12:05:26;;;;;;;94.88;40.90;;;2.70;99.90;;;;;;5018156;28;20497;-47
2021/12/06 12:07:56;;;;;;;97.80;41.30;;;2.70;99.90;;;;;;5011993;28;20570;-47
2021/12/06 12:10:34;;;;;;;105.22;43.67;;;2.80;99.90;;;;;;5023587;28;20363;-49
2021/12/06 12:13:01;;;;;;;106.38;42.13;;;2.80;99.90;;;;;;5014923;28;20051;-47
2021/12/06 12:15:28;;;;;;;99.82;40.63;;;2.80;99.90;;;;;;5014088;28;20046;-50
2021/12/06 12:17:54;;;;;;;101.88;42.25;;;2.90;99.90;;;;;;5014572;28;20049;-49
2021/12/06 12:20:24;;;;;;;102.07;42.90;;;2.90;99.90;;;;;;5013946;28;20490;-49
2021/12/06 12:22:59;;;;;;;103.57;41.00;;;2.80;99.90;;;;;;5013958;28;20049;-47
2021/12/06 12:25:33;;;;;;;101.60;41.70;;;2.90;99.90;;;;;;5017103;28;20049;-48
2021/12/06 12:30:33;;;;;;;98.57;42.55;;;2.90;99.90;;;;;;5017291;28;20123;-47
2021/12/06 12:33:01;;;;;;;100.30;41.47;;;3.00;99.90;;;;;;5011633;28;20455;-47
2021/12/06 12:35:29;;;;;;;90.00;40.00;;;3.00;99.90;;;;;;5021194;28;20123;-46
2021/12/06 12:37:57;;;;;;;90.68;40.70;;;3.10;99.90;;;;;;5022713;28;20543;-48
2021/12/06 12:40:25;;;;;;;96.15;41.15;;;3.20;99.90;;;;;;5014167;28;20464;-50
2021/12/06 12:42:56;;;;;;;89.72;40.17;;;3.20;99.90;;;;;;5019751;28;20056;-48
2021/12/06 12:45:22;;;;;;;92.97;42.25;;;3.30;99.90;;;;;;5018854;28;20047;-48
2021/12/06 12:47:55;;;;;;;86.53;40.72;;;3.30;99.90;;;;;;5007401;28;20507;-47
2021/12/06 12:50:21;;;;;;;90.37;39.67;;;3.30;99.90;;;;;;5009544;28;20050;-50
2021/12/06 12:52:49;;;;;;;84.95;41.75;;;3.40;99.90;;;;;;5017977;28;20312;-47
2021/12/06 12:55:35;;;;;;;86.20;41.00;;;3.40;99.90;;;;;;4991120;28;20172;-49